Time;durP1;ratioP1;P1;durP2;ratioP2;P2;SDS_P1;SDS_P2;PMS_P1;PMS_P2;Temp;Humidity;BMP_temperature;BMP_pressure;BME280_temperature;BME280_humidity;BME280_pressure;Samples;Min_cycle;Max_cycle;Signal;HPM_P1;HPM_P2
2022/09/24 00:01:13;;;;;;;9.13;4.53;;;7.70;99.90;7.00;100467;;;;582815;243;24074;-82
2022/09/24 00:03:40;;;;;;;4.90;4.23;;;7.70;99.90;7.00;100472;;;;584096;243;24047;-81
2022/09/24 00:06:09;;;;;;;6.40;4.57;;;7.70;99.90;7.00;100465;;;;584018;243;24080;-82
2022/09/24 00:08:37;;;;;;;6.93;4.67;;;7.70;99.90;7.00;100471;;;;582543;243;24035;-83
2022/09/24 00:11:05;;;;;;;6.17;5.10;;;7.70;99.90;6.90;100459;;;;593222;242;24105;-82
2022/09/24 00:13:37;;;;;;;6.30;4.60;;;7.70;99.90;6.90;100466;;;;584023;243;24036;-82
2022/09/24 00:16:05;;;;;;;11.13;5.70;;;7.70;99.90;6.90;100465;;;;592792;242;24017;-81
2022/09/24 00:18:33;;;;;;;5.50;4.83;;;7.60;99.90;6.90;100461;;;;584143;243;24132;-81
2022/09/24 00:21:01;;;;;;;9.03;6.37;;;7.60;99.90;6.90;100462;;;;582629;243;24025;-83
2022/09/24 00:23:29;;;;;;;5.90;5.30;;;7.60;99.90;6.90;100455;;;;581823;243;24039;-82
2022/09/24 00:28:43;;;;;;;8.63;6.10;;;7.60;99.90;6.90;100457;;;;582518;243;24084;-85
2022/09/24 00:31:11;;;;;;;7.47;6.20;;;7.60;99.90;6.80;100457;;;;583137;243;24037;-84
2022/09/24 00:33:40;;;;;;;7.80;5.30;;;7.50;99.90;6.80;100452;;;;583084;243;24044;-82
2022/09/24 00:36:08;;;;;;;6.20;5.60;;;7.50;99.90;6.80;100447;;;;583073;243;24016;-82
2022/09/24 00:38:37;;;;;;;7.13;6.37;;;7.50;99.90;6.80;100447;;;;583496;243;23988;-80
2022/09/24 00:41:05;;;;;;;7.43;6.13;;;7.50;99.90;6.80;100443;;;;584209;243;24040;-83
2022/09/24 00:43:33;;;;;;;7.40;6.20;;;7.50;99.90;6.80;100441;;;;585633;243;26174;-78
2022/09/24 00:46:08;;;;;;;8.13;5.67;;;7.50;99.90;6.80;100441;;;;585414;243;24110;-82
2022/09/24 00:48:36;;;;;;;6.47;5.80;;;7.50;99.90;6.80;100429;;;;585914;242;24059;-83
2022/09/24 00:51:04;;;;;;;9.77;6.30;;;7.50;99.90;6.80;100430;;;;585509;242;24047;-80
2022/09/24 00:53:32;;;;;;;6.33;5.53;;;7.50;99.90;6.80;100422;;;;585797;242;24050;-83
2022/09/24 00:56:00;;;;;;;6.83;5.53;;;7.50;99.90;6.80;100425;;;;583895;242;24048;-82
2022/09/24 00:58:28;;;;;;;6.30;5.67;;;7.50;99.90;6.80;100424;;;;585484;242;24090;-84
2022/09/24 01:00:55;;;;;;;5.80;5.30;;;7.50;99.90;6.80;100422;;;;594850;242;24064;-83
2022/09/24 01:03:24;;;;;;;9.80;5.97;;;7.50;99.90;6.80;100422;;;;584338;242;24104;-84
2022/09/24 01:05:54;;;;;;;9.43;5.90;;;7.50;99.90;6.80;100419;;;;585213;243;24044;-84
2022/09/24 01:08:23;;;;;;;8.60;5.47;;;7.50;99.90;6.80;100419;;;;594288;242;24057;-83
2022/09/24 01:11:08;;;;;;;5.90;5.30;;;7.50;99.90;6.80;100417;;;;584766;243;24065;-84
2022/09/24 01:14:06;;;;;;;6.13;5.37;;;7.50;99.90;6.80;100405;;;;583108;243;24039;-83
2022/09/24 01:17:07;;;;;;;8.80;5.73;;;7.50;99.90;6.80;100417;;;;584861;243;24085;-84
2022/09/24 01:19:52;;;;;;;10.07;5.63;;;7.50;99.90;6.80;100408;;;;587963;243;24077;-84
2022/09/24 01:22:52;;;;;;;8.83;5.37;;;7.40;99.90;6.80;100415;;;;584654;243;24089;-84
2022/09/24 01:25:32;;;;;;;7.57;5.60;;;7.40;99.90;6.80;100402;;;;583950;243;24062;-81
2022/09/24 01:28:17;;;;;;;7.70;6.17;;;7.50;99.90;6.80;100392;;;;584324;243;24037;-80
2022/09/24 01:30:45;;;;;;;6.67;6.00;;;7.40;99.90;6.80;100397;;;;584713;243;24078;-81
2022/09/24 01:33:12;;;;;;;7.30;5.57;;;7.50;99.90;6.80;100396;;;;582766;243;24067;-81
2022/09/24 01:35:43;;;;;;;5.33;4.83;;;7.50;99.90;6.80;100395;;;;584814;243;24042;-83
2022/09/24 01:38:19;;;;;;;9.83;6.20;;;7.50;99.90;6.80;100396;;;;594143;242;24026;-83
2022/09/24 01:40:51;;;;;;;11.47;5.83;;;7.50;99.90;6.80;100395;;;;593877;242;24140;-83
2022/09/24 01:43:15;;;;;;;6.67;5.73;;;7.50;99.90;6.80;100395;;;;582629;243;24067;-84
2022/09/24 01:45:43;;;;;;;7.40;5.87;;;7.50;99.90;6.80;100390;;;;585100;243;24062;-83
2022/09/24 01:48:14;;;;;;;7.73;4.97;;;7.50;99.90;6.80;100384;;;;583365;243;24045;-83
2022/09/24 01:50:50;;;;;;;6.30;5.70;;;7.50;99.90;6.80;100395;;;;584314;243;24050;-84
2022/09/24 01:53:24;;;;;;;6.47;5.77;;;7.50;99.90;6.80;100390;;;;585974;240;24268;-83
2022/09/24 01:55:52;;;;;;;7.73;6.40;;;7.50;99.90;6.80;100390;;;;584705;243;24045;-84
2022/09/24 01:58:23;;;;;;;7.80;6.23;;;7.50;99.90;6.80;100390;;;;585344;242;24048;-83
2022/09/24 02:00:51;;;;;;;8.00;6.03;;;7.50;99.90;6.80;100382;;;;585977;242;24118;-84
2022/09/24 02:03:22;;;;;;;8.30;5.83;;;7.50;99.90;6.80;100389;;;;585429;242;24050;-83
2022/09/24 02:05:50;;;;;;;8.20;6.37;;;7.50;99.90;6.80;100380;;;;594904;242;25101;-84
2022/09/24 02:08:21;;;;;;;7.50;6.03;;;7.50;99.90;6.80;100382;;;;585212;242;24113;-84
2022/09/24 02:10:57;;;;;;;9.23;6.57;;;7.50;99.90;6.80;100387;;;;583301;242;24022;-83
2022/09/24 02:13:26;;;;;;;7.17;6.13;;;7.50;99.90;6.80;100383;;;;583363;242;24070;-83
2022/09/24 02:15:53;;;;;;;7.77;6.47;;;7.50;99.90;6.80;100388;;;;585069;243;24042;-84
2022/09/24 02:18:21;;;;;;;9.27;6.77;;;7.50;99.90;6.80;100390;;;;585204;243;24037;-85
2022/09/24 02:20:49;;;;;;;10.17;6.07;;;7.50;99.90;6.70;100383;;;;585449;243;24039;-84
2022/09/24 02:23:17;;;;;;;8.07;6.20;;;7.50;99.90;6.70;100388;;;;585330;243;24045;-82
2022/09/24 02:25:49;;;;;;;7.97;5.83;;;7.40;99.90;6.70;100388;;;;585518;243;24058;-83
2022/09/24 02:28:19;;;;;;;10.03;6.13;;;7.40;99.90;6.70;100385;;;;585137;243;24125;-84
2022/09/24 02:30:45;;;;;;;6.53;5.93;;;7.40;99.90;6.70;100380;;;;582409;243;24061;-81
2022/09/24 02:35:59;;;;;;;8.30;6.53;;;7.40;99.90;6.70;100385;;;;593437;242;24028;-82
2022/09/24 02:38:27;;;;;;;7.90;5.67;;;7.40;99.90;6.70;100382;;;;582613;243;24056;-81
2022/09/24 02:40:54;;;;;;;9.70;6.47;;;7.40;99.90;6.80;100384;;;;582214;243;24049;-82
2022/09/24 02:43:23;;;;;;;6.80;6.00;;;7.50;99.90;6.80;100382;;;;583733;243;24017;-82
2022/09/24 02:45:50;;;;;;;9.87;5.77;;;7.50;99.90;6.90;100377;;;;582288;243;24046;-81
2022/09/24 02:48:18;;;;;;;6.50;5.90;;;7.60;99.90;7.00;100371;;;;582100;243;24035;-82
2022/09/24 02:50:46;;;;;;;9.93;6.47;;;7.70;99.90;7.00;100368;;;;582181;243;24074;-82
2022/09/24 02:53:14;;;;;;;8.23;5.87;;;7.70;99.90;7.10;100373;;;;582188;243;24026;-82
2022/09/24 02:55:42;;;;;;;8.27;5.17;;;7.80;99.90;7.10;100377;;;;582059;243;24098;-82
2022/09/24 02:58:10;;;;;;;9.10;6.13;;;7.80;99.90;7.20;100365;;;;582317;243;24038;-82
2022/09/24 03:00:38;;;;;;;8.80;5.50;;;7.90;99.90;7.20;100371;;;;582108;243;24033;-82
2022/09/24 03:03:06;;;;;;;7.17;5.53;;;8.00;99.90;7.20;100364;;;;584034;243;25115;-82
2022/09/24 03:05:34;;;;;;;6.60;5.67;;;7.90;99.90;7.30;100367;;;;582436;243;24035;-82
2022/09/24 03:08:05;;;;;;;11.17;6.13;;;8.00;99.90;7.30;100368;;;;582873;243;25068;-84
2022/09/24 03:10:30;;;;;;;8.80;6.20;;;8.00;99.90;7.30;100367;;;;583470;242;24041;-82
2022/09/24 03:12:58;;;;;;;7.40;5.90;;;8.00;99.90;7.40;100371;;;;583608;242;24037;-83
2022/09/24 03:15:26;;;;;;;8.63;6.57;;;8.10;99.90;7.40;100369;;;;583823;242;24077;-83
2022/09/24 03:17:54;;;;;;;7.37;5.30;;;8.10;99.90;7.40;100366;;;;583438;242;24029;-84
2022/09/24 03:20:23;;;;;;;6.30;5.67;;;8.10;99.90;7.40;100363;;;;583598;242;24045;-83
2022/09/24 03:22:53;;;;;;;8.13;5.27;;;8.10;99.90;7.40;100364;;;;585253;242;24030;-83
2022/09/24 03:25:24;;;;;;;11.13;5.30;;;8.10;99.90;7.40;100368;;;;583371;242;24060;-84
2022/09/24 03:27:48;;;;;;;6.23;4.57;;;8.10;99.90;7.50;100359;;;;585335;242;24080;-81
2022/09/24 03:33:02;;;;;;;5.23;4.07;;;8.20;99.90;7.50;100357;;;;584089;243;24065;-82
2022/09/24 03:35:30;;;;;;;6.10;4.20;;;8.20;99.90;7.50;100361;;;;582232;243;24097;-81
2022/09/24 03:37:58;;;;;;;4.47;4.07;;;8.20;99.90;7.50;100363;;;;582494;243;24050;-81
2022/09/24 03:40:26;;;;;;;5.20;4.50;;;8.20;99.90;7.60;100362;;;;582125;243;25195;-81
2022/09/24 03:42:54;;;;;;;7.23;4.43;;;8.20;99.90;7.60;100366;;;;582288;243;24092;-81
2022/09/24 03:45:22;;;;;;;6.03;4.93;;;8.30;99.90;7.60;100374;;;;582251;243;24040;-81
2022/09/24 03:47:50;;;;;;;6.43;4.87;;;8.30;99.90;7.60;100367;;;;583652;243;24067;-82
2022/09/24 03:50:18;;;;;;;5.97;4.63;;;8.30;99.90;7.60;100358;;;;582090;243;24032;-82
2022/09/24 03:52:45;;;;;;;5.53;5.00;;;8.30;99.90;7.70;100362;;;;582049;243;24139;-81
2022/09/24 03:55:13;;;;;;;6.13;4.83;;;8.40;99.90;7.70;100356;;;;582494;243;24029;-81
2022/09/24 03:57:41;;;;;;;6.47;5.13;;;8.40;99.90;7.70;100361;;;;584168;243;24067;-82
2022/09/24 04:00:10;;;;;;;7.50;4.63;;;8.40;99.90;7.70;100359;;;;582596;243;24039;-82
2022/09/24 04:02:39;;;;;;;5.40;4.90;;;8.40;99.90;7.70;100362;;;;583917;243;24065;-83
2022/09/24 04:05:05;;;;;;;9.30;6.80;;;8.40;99.90;7.70;100353;;;;581807;243;24053;-82
2022/09/24 04:07:33;;;;;;;12.90;6.13;;;8.40;99.90;7.80;100362;;;;583797;243;24024;-82
2022/09/24 04:10:01;;;;;;;6.60;5.93;;;8.50;99.90;7.80;100364;;;;582042;243;24026;-82
2022/09/24 04:12:30;;;;;;;17.13;6.30;;;8.50;99.90;7.80;100358;;;;583887;243;24079;-82
2022/09/24 04:14:57;;;;;;;8.23;6.17;;;8.50;99.90;7.80;100353;;;;582099;243;24070;-82
2022/09/24 04:17:27;;;;;;;8.00;6.23;;;8.50;99.90;7.80;100362;;;;583874;243;24074;-82
2022/09/24 04:19:53;;;;;;;8.97;6.47;;;8.50;99.90;7.80;100355;;;;582444;243;24030;-82
2022/09/24 04:22:21;;;;;;;10.23;6.50;;;8.50;99.90;7.80;100354;;;;584413;242;24034;-83
2022/09/24 04:24:50;;;;;;;11.20;6.90;;;8.50;99.90;7.80;100358;;;;584537;242;24037;-83
2022/09/24 04:27:20;;;;;;;10.97;5.37;;;8.60;99.90;7.90;100356;;;;584045;242;24092;-83
2022/09/24 04:29:45;;;;;;;12.37;5.83;;;8.60;99.90;7.90;100352;;;;583968;242;24110;-82
2022/09/24 04:32:12;;;;;;;10.90;6.17;;;8.60;99.90;7.90;100353;;;;583695;242;24028;-82
2022/09/24 04:34:40;;;;;;;9.43;6.30;;;8.60;99.90;7.90;100356;;;;583235;242;24038;-83
2022/09/24 04:37:09;;;;;;;9.57;6.40;;;8.60;99.90;8.00;100355;;;;583275;242;24022;-82
2022/09/24 04:39:37;;;;;;;11.37;7.07;;;8.70;99.90;8.00;100352;;;;582971;243;24056;-83
2022/09/24 04:42:05;;;;;;;8.20;5.73;;;8.70;99.90;8.00;100359;;;;583086;243;24033;-83
2022/09/24 04:44:33;;;;;;;11.07;6.57;;;8.70;99.90;8.00;100350;;;;582925;243;24020;-82
2022/09/24 04:47:02;;;;;;;8.80;6.43;;;8.70;99.90;8.10;100352;;;;582831;243;24077;-82
2022/09/24 04:49:29;;;;;;;8.70;6.30;;;8.70;99.90;8.10;100356;;;;583113;243;24056;-82
2022/09/24 04:51:57;;;;;;;10.77;6.37;;;8.80;99.90;8.10;100350;;;;593676;242;24095;-82
2022/09/24 04:54:24;;;;;;;10.20;7.03;;;8.80;99.90;8.10;100348;;;;583124;243;24022;-84
2022/09/24 04:56:52;;;;;;;9.97;6.60;;;8.80;99.90;8.10;100352;;;;584820;243;24039;-82
2022/09/24 04:59:20;;;;;;;9.43;6.50;;;8.80;99.90;8.20;100342;;;;583065;243;24048;-84
2022/09/24 05:01:48;;;;;;;11.50;5.83;;;8.90;99.90;8.20;100344;;;;584551;243;24046;-84
2022/09/24 05:04:17;;;;;;;8.37;5.00;;;8.90;99.90;8.20;100344;;;;582332;243;24049;-81
2022/09/24 05:06:44;;;;;;;8.03;5.60;;;8.90;99.90;8.30;100338;;;;583874;243;24056;-81
2022/09/24 05:09:12;;;;;;;5.60;4.73;;;8.90;99.90;8.30;100347;;;;582135;243;24038;-81
2022/09/24 05:11:41;;;;;;;8.90;5.20;;;9.00;99.90;8.30;100354;;;;582278;243;24053;-82
2022/09/24 05:14:09;;;;;;;8.33;5.67;;;9.00;99.90;8.40;100343;;;;582242;243;24019;-82
2022/09/24 05:16:36;;;;;;;8.03;5.53;;;9.00;99.90;8.40;100345;;;;582081;243;24061;-81
2022/09/24 05:19:04;;;;;;;8.37;5.00;;;9.10;99.90;8.40;100348;;;;582020;243;24092;-82
2022/09/24 05:21:32;;;;;;;6.50;5.23;;;9.10;99.90;8.40;100343;;;;582082;243;24099;-82
2022/09/24 05:24:00;;;;;;;11.37;5.67;;;9.10;99.90;8.40;100343;;;;582507;243;24042;-82
2022/09/24 05:29:14;;;;;;;8.27;5.07;;;9.10;99.90;8.50;100338;;;;582530;243;24035;-82
2022/09/24 05:31:42;;;;;;;7.60;5.73;;;9.10;99.90;8.50;100348;;;;582654;243;24031;-82
2022/09/24 05:34:14;;;;;;;8.13;5.90;;;9.20;99.90;8.60;100350;;;;583604;242;24049;-82
2022/09/24 05:36:38;;;;;;;9.20;5.90;;;9.20;99.90;8.60;100348;;;;593905;241;24077;-82
2022/09/24 05:39:06;;;;;;;10.57;6.40;;;9.30;99.90;8.70;100347;;;;583086;242;24054;-82
2022/09/24 05:41:34;;;;;;;9.97;6.63;;;9.40;99.90;8.80;100344;;;;585040;242;24088;-82
2022/09/24 05:44:05;;;;;;;10.07;6.83;;;9.60;99.90;9.00;100345;;;;584646;242;24046;-82
2022/09/24 05:46:30;;;;;;;10.03;6.30;;;9.60;99.90;9.20;100350;;;;593824;242;24048;-81
2022/09/24 05:48:58;;;;;;;9.30;6.20;;;9.80;99.90;9.40;100352;;;;584202;242;24083;-82
2022/09/24 05:51:26;;;;;;;11.87;6.00;;;10.00;99.90;9.60;100345;;;;586029;243;23996;-81
2022/09/24 05:53:56;;;;;;;10.43;6.93;;;10.50;99.90;9.80;100349;;;;585312;243;24056;-82
2022/09/24 05:56:24;;;;;;;9.83;5.63;;;10.40;99.90;10.00;100346;;;;584249;243;24031;-82
2022/09/24 05:58:53;;;;;;;8.73;6.43;;;10.80;99.90;10.30;100351;;;;584405;243;24039;-80
2022/09/24 06:01:20;;;;;;;9.97;6.30;;;10.80;99.90;10.40;100351;;;;584354;243;24052;-82
2022/09/24 06:03:48;;;;;;;7.57;5.83;;;11.00;99.90;10.60;100352;;;;584456;243;24031;-82
2022/09/24 06:06:16;;;;;;;7.40;5.80;;;11.20;99.90;10.70;100349;;;;584464;243;24039;-82
2022/09/24 06:08:44;;;;;;;8.13;5.90;;;11.40;99.90;10.90;100345;;;;584305;243;24045;-82
2022/09/24 06:11:12;;;;;;;8.27;5.47;;;11.50;99.90;11.00;100348;;;;584247;243;24052;-82
2022/09/24 06:13:40;;;;;;;8.33;4.90;;;11.70;99.90;11.10;100347;;;;584263;243;24048;-82
2022/09/24 06:16:08;;;;;;;7.07;5.10;;;11.80;99.90;11.30;100343;;;;584412;243;24088;-83
2022/09/24 06:18:39;;;;;;;6.67;5.27;;;11.90;99.90;11.40;100341;;;;593590;242;24089;-83
2022/09/24 06:21:06;;;;;;;8.33;5.20;;;12.00;99.90;11.50;100347;;;;584543;243;24105;-83
2022/09/24 06:23:32;;;;;;;6.60;4.53;;;12.10;99.90;11.60;100356;;;;584370;243;24062;-82
2022/09/24 06:25:59;;;;;;;8.37;5.17;;;12.20;99.90;11.80;100355;;;;584124;243;24079;-82
2022/09/24 06:28:31;;;;;;;6.80;4.47;;;12.40;99.90;11.90;100346;;;;584399;243;24031;-81
2022/09/24 06:30:55;;;;;;;6.07;4.40;;;12.60;99.90;12.10;100348;;;;584405;243;24019;-83
2022/09/24 06:33:23;;;;;;;10.20;4.60;;;12.70;99.90;12.30;100352;;;;584596;243;24121;-84
2022/09/24 06:35:51;;;;;;;7.37;4.43;;;12.90;99.90;12.50;100347;;;;585045;243;24032;-84
2022/09/24 06:38:19;;;;;;;7.90;4.17;;;13.10;99.90;12.70;100351;;;;585055;243;24085;-84
2022/09/24 06:40:50;;;;;;;5.10;4.47;;;13.20;99.90;13.00;100347;;;;585091;243;24122;-84
2022/09/24 06:43:18;;;;;;;5.50;4.63;;;13.50;99.90;13.50;100355;;;;594400;242;24056;-83
2022/09/24 06:45:49;;;;;;;8.07;4.63;;;13.90;99.90;14.10;100358;;;;586665;242;24052;-84
2022/09/24 06:48:16;;;;;;;6.70;4.70;;;14.50;99.90;15.60;100362;;;;586427;242;24048;-84
2022/09/24 06:50:42;;;;;;;7.93;5.63;;;15.60;99.90;16.80;100361;;;;595345;241;24046;-83
2022/09/24 06:53:13;;;;;;;7.17;5.07;;;16.90;99.90;17.50;100363;;;;586371;242;24086;-82
2022/09/24 06:55:40;;;;;;;5.03;4.53;;;17.80;99.90;18.20;100364;;;;585696;242;23995;-84
2022/09/24 06:58:09;;;;;;;7.47;5.70;;;19.10;99.90;18.70;100364;;;;585788;242;24084;-84
2022/09/24 07:00:41;;;;;;;5.23;4.43;;;19.10;99.90;19.20;100366;;;;586082;242;24094;-84
2022/09/24 07:03:08;;;;;;;8.50;5.00;;;19.70;99.90;19.50;100364;;;;585181;243;24085;-84
2022/09/24 07:05:36;;;;;;;18.10;5.67;;;20.30;99.90;19.80;100366;;;;582834;243;24049;-82
2022/09/24 07:08:04;;;;;;;6.03;4.33;;;20.30;99.90;20.80;100367;;;;584866;243;24059;-83
2022/09/24 07:10:32;;;;;;;5.43;4.10;;;21.10;99.90;21.70;100365;;;;585064;243;23059;-83
2022/09/24 07:13:00;;;;;;;6.27;4.13;;;22.10;99.90;22.30;100371;;;;584803;243;24150;-81
2022/09/24 07:15:28;;;;;;;61.53;10.70;;;22.80;99.20;23.00;100373;;;;584350;243;24018;-81
2022/09/24 07:17:56;;;;;;;19.27;6.40;;;23.40;95.00;23.10;100363;;;;584697;243;24019;-80
2022/09/24 07:20:27;;;;;;;11.07;4.90;;;23.70;92.00;23.40;100372;;;;594295;242;24129;-80
2022/09/24 07:22:51;;;;;;;10.83;4.50;;;23.90;90.40;24.40;100374;;;;584733;243;24150;-81
2022/09/24 07:25:19;;;;;;;10.90;4.73;;;24.80;89.60;25.80;100377;;;;584887;243;23036;-80
2022/09/24 07:27:51;;;;;;;6.53;4.17;;;26.00;82.50;27.00;100376;;;;584895;243;23031;-80
2022/09/24 07:30:21;;;;;;;7.93;4.20;;;27.20;76.00;28.10;100385;;;;584548;243;23044;-82
2022/09/24 07:32:49;;;;;;;5.77;3.77;;;28.30;68.00;28.50;100377;;;;584273;243;23050;-80
2022/09/24 07:35:18;;;;;;;4.12;3.72;;;29.20;62.90;28.60;100385;;;;584321;243;24127;-81
2022/09/24 07:37:43;;;;;;;5.30;3.50;;;29.10;62.80;28.50;100382;;;;593150;242;24084;-81
2022/09/24 07:40:10;;;;;;;8.90;3.63;;;29.10;62.00;28.10;100380;;;;584445;243;23048;-81
2022/09/24 07:42:38;;;;;;;8.20;3.80;;;28.80;61.60;27.60;100383;;;;584209;243;23055;-81
2022/09/24 07:45:10;;;;;;;6.83;3.83;;;28.50;61.70;27.40;100388;;;;583996;243;23122;-80
2022/09/24 07:47:35;;;;;;;6.23;3.70;;;28.20;61.90;27.10;100388;;;;593191;242;24041;-81
2022/09/24 07:50:06;;;;;;;4.83;3.73;;;27.90;61.50;26.90;100387;;;;584330;243;23064;-80
2022/09/24 07:52:30;;;;;;;6.40;3.90;;;27.60;61.80;26.70;100391;;;;584123;243;23051;-80
2022/09/24 07:54:58;;;;;;;10.30;4.63;;;27.40;61.20;26.30;100389;;;;584366;243;23040;-81
2022/09/24 07:57:26;;;;;;;5.70;3.87;;;27.10;62.50;26.10;100395;;;;585722;242;23106;-81
2022/09/24 07:59:54;;;;;;;6.37;3.80;;;26.80;62.90;26.10;100390;;;;585782;242;23033;-84
2022/09/24 08:02:25;;;;;;;5.60;3.57;;;26.70;63.40;26.10;100393;;;;585209;242;23072;-82
2022/09/24 08:04:51;;;;;;;4.37;3.90;;;26.70;64.00;26.20;100395;;;;583272;242;23037;-81
2022/09/24 08:07:19;;;;;;;10.63;3.53;;;26.60;63.90;26.30;100396;;;;585016;242;23036;-81
2022/09/24 08:09:46;;;;;;;3.33;3.07;;;26.70;63.20;26.40;100394;;;;584939;242;23025;-82
2022/09/24 08:12:15;;;;;;;3.87;3.47;;;26.80;61.90;26.30;100393;;;;584463;242;23032;-81
2022/09/24 08:14:43;;;;;;;7.53;3.03;;;26.80;61.10;26.20;100404;;;;584342;243;23084;-82
2022/09/24 08:17:10;;;;;;;4.27;2.97;;;26.70;60.30;26.20;100403;;;;584162;243;24071;-81
2022/09/24 08:19:42;;;;;;;5.43;3.17;;;26.70;60.10;26.20;100406;;;;584332;243;23032;-82
2022/09/24 08:22:06;;;;;;;4.63;3.47;;;26.80;59.70;26.20;100409;;;;584228;243;23046;-81
2022/09/24 08:24:35;;;;;;;4.23;2.60;;;26.90;59.80;26.40;100404;;;;584664;243;24053;-84
2022/09/24 08:27:03;;;;;;;3.20;2.90;;;27.50;58.00;27.10;100412;;;;584323;243;24075;-82
2022/09/24 08:29:32;;;;;;;7.97;3.37;;;28.10;57.10;27.60;100418;;;;584202;243;23046;-82
2022/09/24 08:32:00;;;;;;;5.60;2.70;;;28.10;56.40;28.00;100426;;;;584188;243;23049;-81
2022/09/24 08:34:28;;;;;;;4.77;3.30;;;28.60;56.40;28.50;100420;;;;583936;243;24028;-79
2022/09/24 08:36:56;;;;;;;3.30;3.10;;;29.10;56.00;29.20;100424;;;;584323;243;23048;-80
2022/09/24 08:39:27;;;;;;;4.72;3.28;;;29.80;55.20;30.00;100422;;;;584268;243;23051;-81
2022/09/24 08:41:58;;;;;;;3.28;3.03;;;30.60;53.00;31.10;100433;;;;582095;243;23100;-81
2022/09/24 08:47:47;;;;;;;6.00;3.10;;;34.40;49.00;33.80;100426;;;;584236;243;23059;-81
2022/09/24 08:50:21;;;;;;;6.20;3.83;;;34.30;48.90;34.80;100430;;;;584349;243;23048;-81
2022/09/24 08:53:13;;;;;;;8.20;4.47;;;35.60;46.50;35.00;100430;;;;584675;243;23061;-82
2022/09/24 08:55:47;;;;;;;5.85;4.12;;;36.00;44.70;35.30;100439;;;;584480;243;23127;-82
2022/09/24 08:58:39;;;;;;;16.50;5.30;;;36.40;44.20;35.40;100443;;;;584702;243;23057;-82
2022/09/24 09:01:10;;;;;;;9.18;4.75;;;36.60;43.00;34.80;100441;;;;582224;243;23113;-82
2022/09/24 09:03:56;;;;;;;8.43;4.32;;;36.40;42.60;34.30;100441;;;;584443;243;24107;-83
2022/09/24 09:06:58;;;;;;;14.15;5.22;;;35.90;43.90;33.80;100439;;;;584363;243;24059;-83
2022/09/24 09:09:26;;;;;;;10.90;4.60;;;35.40;42.60;33.20;100448;;;;585822;242;23087;-82
2022/09/24 09:11:56;;;;;;;13.35;5.47;;;34.80;43.40;32.40;100435;;;;585019;242;23099;-83
2022/09/24 09:14:48;;;;;;;16.37;5.60;;;34.20;42.80;32.00;100435;;;;584475;242;23071;-84
2022/09/24 09:17:41;;;;;;;14.48;3.95;;;33.50;44.30;32.10;100438;;;;561231;248;23085;-83
2022/09/24 09:20:23;;;;;;;6.85;3.55;;;33.40;44.10;32.10;100440;;;;582001;242;23059;-83
2022/09/24 09:22:52;;;;;;;10.40;4.82;;;33.40;43.00;31.90;100439;;;;584574;242;23044;-83
2022/09/24 09:25:20;;;;;;;34.38;6.87;;;33.20;43.40;30.70;100434;;;;585170;242;23050;-83
2022/09/24 09:28:00;;;;;;;23.83;6.72;;;32.40;44.20;30.00;100440;;;;585073;243;23052;-83
2022/09/24 09:30:27;;;;;;;17.80;4.80;;;31.60;46.50;29.70;100436;;;;585049;243;23043;-83
2022/09/24 09:33:13;;;;;;;11.57;4.15;;;31.20;47.20;30.00;100438;;;;584849;243;23092;-82
2022/09/24 09:35:53;;;;;;;4.40;2.72;;;31.20;47.20;30.60;100445;;;;583183;243;23040;-83
2022/09/24 09:38:24;;;;;;;5.85;3.42;;;31.60;46.40;31.30;100449;;;;585573;243;23054;-82
2022/09/24 09:41:19;;;;;;;5.80;3.50;;;32.20;46.40;31.80;100452;;;;585231;243;23122;-83
2022/09/24 09:43:46;;;;;;;3.50;3.20;;;32.90;44.30;31.90;100448;;;;584953;243;23069;-81
2022/09/24 09:46:27;;;;;;;6.32;3.00;;;32.90;42.80;31.40;100445;;;;584786;243;23061;-82
2022/09/24 09:48:58;;;;;;;4.12;3.00;;;32.90;42.80;31.10;100447;;;;585191;243;24063;-83
2022/09/24 09:51:26;;;;;;;11.45;4.35;;;32.70;42.60;30.90;100450;;;;584253;243;23040;-82
2022/09/24 09:54:04;;;;;;;6.28;2.60;;;32.30;43.10;30.60;100449;;;;585368;243;23071;-82
2022/09/24 09:56:44;;;;;;;4.50;2.80;;;32.30;42.50;30.50;100443;;;;584589;243;23096;-83
2022/09/24 09:59:12;;;;;;;3.65;3.00;;;32.10;43.00;29.90;100441;;;;583735;243;23079;-82
2022/09/24 10:01:43;;;;;;;24.70;4.43;;;30.70;44.10;29.00;100439;;;;584139;243;23048;-83
2022/09/24 10:04:34;;;;;;;18.50;4.25;;;29.70;45.50;27.90;100436;;;;583734;243;23105;-84
2022/09/24 10:07:13;;;;;;;4.03;2.60;;;29.60;45.50;27.20;100435;;;;584469;243;23076;-83
2022/09/24 10:09:41;;;;;;;3.73;2.70;;;28.80;45.80;27.20;100428;;;;583725;243;23090;-82
2022/09/24 10:12:09;;;;;;;4.67;2.57;;;28.40;47.50;26.90;100426;;;;583985;243;23057;-83
2022/09/24 10:14:37;;;;;;;5.33;3.30;;;28.10;48.10;26.10;100430;;;;582624;243;24084;-82
2022/09/24 10:17:07;;;;;;;5.07;4.20;;;26.70;51.20;25.50;100431;;;;584124;243;23068;-83
2022/09/24 10:19:38;;;;;;;4.03;3.70;;;26.60;51.20;24.90;100435;;;;591789;241;23063;-81
2022/09/24 10:22:22;;;;;;;4.47;3.77;;;26.00;52.20;23.90;100433;;;;585037;242;23075;-83
2022/09/24 10:24:51;;;;;;;3.77;2.83;;;25.10;52.90;23.20;100431;;;;584794;242;23044;-82
2022/09/24 10:27:30;;;;;;;3.47;3.17;;;24.30;54.70;22.90;100435;;;;585190;242;24037;-83
2022/09/24 10:32:47;;;;;;;3.60;3.30;;;23.30;57.20;22.10;100419;;;;584785;242;24050;-82
2022/09/24 10:35:33;;;;;;;3.00;2.80;;;22.80;58.40;22.10;100415;;;;593805;242;24076;-83
2022/09/24 10:38:01;;;;;;;2.93;2.67;;;22.50;59.10;21.70;100410;;;;584665;243;24068;-82
2022/09/24 10:40:29;;;;;;;4.07;2.40;;;22.20;58.40;21.30;100410;;;;584693;240;24043;-83
2022/09/24 10:42:57;;;;;;;3.83;2.60;;;21.90;58.70;20.90;100413;;;;585326;243;24059;-84
2022/09/24 10:45:24;;;;;;;2.77;2.30;;;21.10;59.20;20.50;100419;;;;585262;243;23070;-83
2022/09/24 10:48:10;;;;;;;3.07;2.23;;;21.10;59.20;20.20;100407;;;;584732;243;24034;-82
2022/09/24 10:50:38;;;;;;;3.07;2.50;;;20.80;60.60;19.90;100401;;;;577160;243;23062;-81
2022/09/24 10:53:21;;;;;;;3.20;2.43;;;20.50;61.70;19.60;100413;;;;584665;243;24058;-83
2022/09/24 10:56:10;;;;;;;2.83;2.37;;;20.20;62.80;19.40;100412;;;;582341;243;24070;-83
2022/09/24 10:59:06;;;;;;;2.83;2.33;;;19.90;63.00;19.00;100399;;;;584655;243;24044;-82
2022/09/24 11:01:42;;;;;;;3.90;2.37;;;19.60;64.00;18.90;100400;;;;585061;243;24052;-81
2022/09/24 11:04:22;;;;;;;2.40;2.20;;;19.20;66.30;18.50;100400;;;;583750;243;24055;-81
2022/09/24 11:07:26;;;;;;;3.90;2.07;;;19.10;66.20;18.40;100403;;;;583158;243;24077;-81
2022/09/24 11:10:22;;;;;;;2.30;2.00;;;19.00;67.30;18.50;100391;;;;584033;243;24043;-81
2022/09/24 11:13:16;;;;;;;3.00;2.10;;;18.90;67.20;18.50;100397;;;;583602;243;24050;-81
2022/09/24 11:16:30;;;;;;;1.93;1.83;;;18.90;66.50;18.50;100397;;;;584841;243;24047;-81
2022/09/24 11:19:25;;;;;;;3.73;2.27;;;19.00;66.70;18.60;100388;;;;584573;243;24100;-81
2022/09/24 11:22:14;;;;;;;1.67;1.57;;;19.10;66.40;18.50;100380;;;;584555;243;24092;-82
2022/09/24 11:25:12;;;;;;;3.33;1.60;;;19.00;62.80;18.20;100399;;;;583883;243;24203;-83
2022/09/24 11:28:19;;;;;;;1.80;1.70;;;18.80;62.60;18.00;100389;;;;584092;243;24050;-83
2022/09/24 11:31:12;;;;;;;1.93;1.57;;;18.60;61.40;17.80;100386;;;;584153;242;24041;-82
2022/09/24 11:34:13;;;;;;;1.57;1.43;;;18.40;61.00;17.60;100387;;;;585266;242;24074;-82
2022/09/24 11:36:51;;;;;;;1.40;1.30;;;18.20;60.00;17.50;100382;;;;584775;242;24027;-82
2022/09/24 11:39:33;;;;;;;1.43;1.33;;;18.00;60.60;17.50;100388;;;;584043;242;24082;-81
2022/09/24 11:42:28;;;;;;;1.70;1.60;;;18.00;61.90;17.50;100381;;;;583505;242;24049;-84
2022/09/24 11:45:15;;;;;;;2.87;1.40;;;18.00;63.60;17.50;100381;;;;585325;242;24023;-83
2022/09/24 11:48:08;;;;;;;1.60;1.50;;;18.00;63.60;17.60;100382;;;;584760;242;24040;-84
2022/09/24 11:51:19;;;;;;;1.60;1.50;;;18.10;65.10;17.70;100380;;;;584598;243;23094;-82
2022/09/24 11:54:08;;;;;;;1.90;1.80;;;18.20;65.80;17.70;100382;;;;584484;243;24048;-83
2022/09/24 11:56:42;;;;;;;1.67;1.57;;;18.20;66.50;17.80;100368;;;;584501;243;24035;-83